Thursday, February 22, 2018, 12:03 PM EST
Back to Local

KLEB, Lebanon Municipal Airport

Location: Lebanon, NH, United States Lat: 43.633
Local Time: 12:03 PM EST (17:03 GMT) Lon: -72.3
Time Zone: US/Eastern Elev: 597 ft

Show me the last for .
Show Decoded

2018-02-22 11:53 METAR KLEB 221653Z 00000KT 10SM OVC060 02/M07 A3065 RMK AO2 SLP386 T00171067 =
2018-02-22 10:53 METAR KLEB 221553Z 01004KT 10SM BKN075 OVC095 01/M07 A3069 RMK AO2 SLP398
                 T00111067 =
2018-02-22 09:53 METAR KLEB 221453Z 03005KT 10SM OVC095 01/M07 A3066 RMK AO2 SLP389 T00111072
                 50012 =
2018-02-22 08:53 METAR KLEB 221353Z 04005KT 10SM OVC110 01/M07 A3067 RMK AO2 SLP391 T00111072 =
2018-02-22 07:53 METAR KLEB 221253Z 36004KT 10SM OVC095 01/M08 A3064 RMK AO2 SLP381 T00111078 =
2018-02-22 06:53 METAR KLEB 221153Z 36004KT 10SM BKN095 01/M08 A3062 RMK AO2 SLP375 70001
                 T00061078 10033 20006 53016 =
2018-02-22 05:53 METAR KLEB 221053Z AUTO 02007KT 10SM BKN100 01/M08 A3060 RMK AO2 SLP367
                 T00061078 =
2018-02-22 04:53 METAR KLEB 220953Z AUTO 36007KT 10SM OVC100 01/M06 A3059 RMK AO2 SLP361
                 T00111061 =
2018-02-22 03:53 METAR KLEB 220853Z AUTO 01004KT 10SM FEW100 02/M06 A3057 RMK AO2 SLP354
                 T00171061 51015 =
2018-02-22 02:53 METAR KLEB 220753Z AUTO 34007KT 10SM CLR 02/M06 A3056 RMK AO2 SLP353 T00221061 =
2018-02-22 01:53 METAR KLEB 220653Z AUTO 36009KT 10SM OVC085 03/M04 A3055 RMK AO2 SLP347
                 T00281044 =
2018-02-22 00:53 METAR KLEB 220553Z AUTO 36007KT 10SM OVC085 03/M04 A3053 RMK AO2 SLP341
                 T00331039 10100 20033 52038 =
2018-02-21 23:53 METAR KLEB 220453Z AUTO 36007KT 10SM OVC080 04/M04 A3050 RMK AO2 SLP330
                 T00391044 402000011 =
2018-02-21 22:53 METAR KLEB 220353Z AUTO 36008KT 10SM OVC080 06/M04 A3045 RMK AO2 SLP313
                 T00561039 =
2018-02-21 21:53 METAR KLEB 220253Z 36005KT 10SM OVC080 07/M04 A3041 RMK AO2 SLP302 T00671044
                 51035 =
2018-02-21 20:53 METAR KLEB 220153Z 35006KT 10SM OVC070 08/M01 A3038 RMK AO2 SLP289 T00781006 =
2018-02-21 19:53 METAR KLEB 220053Z 35010KT 10SM OVC039 09/03 A3035 RMK AO2 SLP279 T00940028 =
2018-02-21 19:24 METAR KLEB 220024Z 01007KT 10SM OVC032 09/05 A3033 RMK AO2 T00940050 =
2018-02-21 18:53 METAR KLEB 212353Z 01010KT 10SM BKN024 OVC028 09/06 A3031 RMK AO2 RAE2254 SLP266
                 P0000 60001 T00940061 10200 20094 51073 =
2018-02-21 17:53 METAR KLEB 212253Z 36011KT 10SM -RA FEW009 OVC015 11/09 A3025 RMK AO2 RAB30
                 PRESRR SLP247 P0001 T01110094 =
2018-02-21 17:39 METAR KLEB 212239Z 35012G18KT 5SM -RA BR SCT009 BKN015 OVC033 13/11 A3022 RMK
                 AO2 RAB30 P0001 T01280106 =
2018-02-21 17:29 METAR KLEB 212229Z 33007KT 9SM SCT014 BKN024 OVC039 14/11 A3021 RMK AO2
                 T01390111 =
2018-02-21 16:53 METAR KLEB 212153Z 31009KT 10SM OVC055 16/11 A3017 RMK AO2 WSHFT 2042 PRESRR
                 SLP218 T01560111 =
2018-02-21 16:02 METAR KLEB 212102Z 31013G24KT 10SM OVC042 18/12 A3011 RMK AO2 WSHFT 2042 PRESRR
                 T01830117 =
2018-02-21 15:53 METAR KLEB 212053Z 31012G20KT 10SM OVC044 20/11 A3009 RMK AO2 PRESRR SLP188
                 T02000111 53008 =
2018-02-21 14:53 METAR KLEB 211953Z 18008KT 10SM FEW050 SCT100 12/09 A3005 RMK AO2 SLP177
                 T01170094 =
2018-02-21 13:53 METAR KLEB 211853Z 22003KT 10SM BKN050 13/11 A3004 RMK AO2 SLP175 T01330106 =
2018-02-21 12:53 METAR KLEB 211753Z 20004KT 10SM SCT065 12/10 A3007 RMK AO2 SLP184 T01170100
                 10128 20050 56026 =
2018-02-21 12:26 METAR KLEB 211726Z 22006KT 7SM CLR 11/10 A3007 RMK AO2 T01110100 =

Support USWX by starting your Amazon purchase here.